Terminal Aerodrome Forecast
Issued by NWS

Home | Current Version | Previous Version | Text Only | Print | Product List | Glossary On
Versions: 1 2 3 4 5 6 7 8 9 10 11 12 13 14 15 16 17 18 19 20 21
518
FTUS43 KLSX 130121 AAA
TAFUIN
TAF AMD
KUIN 130121Z 1301/1324 23005KT P6SM FEW150
     FM130500 21007KT P6SM FEW200
     FM131000 19010KT P6SM FEW090 WS020/23035KT
     FM131600 26017G27KT P6SM SCT250 WS012/27040KT
     FM131700 28016G29KT P6SM SCT200
     FM132100 31020G32KT P6SM BKN035=

USA.gov is the U.S. government's official web portal to all federal, state and local government web resources and services.